sensor_id;sensor_type;location;lat;lon;timestamp;P1;durP1;ratioP1;P2;durP2;ratioP2
4674;SDS011;2351;50.812;12.872;2022-08-11T00:02:03;14.77;;;6.93;;
4674;SDS011;2351;50.812;12.872;2022-08-11T00:04:35;11.37;;;7.13;;
4674;SDS011;2351;50.812;12.872;2022-08-11T00:07:08;14.83;;;6.40;;
4674;SDS011;2351;50.812;12.872;2022-08-11T00:09:41;10.57;;;7.20;;
4674;SDS011;2351;50.812;12.872;2022-08-11T00:12:14;10.93;;;7.23;;
4674;SDS011;2351;50.812;12.872;2022-08-11T00:14:54;13.23;;;7.90;;
4674;SDS011;2351;50.812;12.872;2022-08-11T00:17:31;14.30;;;6.67;;
4674;SDS011;2351;50.812;12.872;2022-08-11T00:20:05;11.53;;;7.23;;
4674;SDS011;2351;50.812;12.872;2022-08-11T00:22:40;10.00;;;7.17;;
4674;SDS011;2351;50.812;12.872;2022-08-11T00:25:15;14.67;;;7.50;;
4674;SDS011;2351;50.812;12.872;2022-08-11T00:27:48;12.73;;;7.47;;
4674;SDS011;2351;50.812;12.872;2022-08-11T00:30:19;14.80;;;7.57;;
4674;SDS011;2351;50.812;12.872;2022-08-11T00:32:52;9.90;;;7.10;;
4674;SDS011;2351;50.812;12.872;2022-08-11T00:35:26;13.80;;;6.83;;
4674;SDS011;2351;50.812;12.872;2022-08-11T00:38:00;10.63;;;8.13;;
4674;SDS011;2351;50.812;12.872;2022-08-11T00:40:38;10.40;;;7.33;;
4674;SDS011;2351;50.812;12.872;2022-08-11T00:43:18;15.23;;;8.70;;
4674;SDS011;2351;50.812;12.872;2022-08-11T00:46:01;11.67;;;8.03;;
4674;SDS011;2351;50.812;12.872;2022-08-11T00:48:44;11.20;;;8.43;;
4674;SDS011;2351;50.812;12.872;2022-08-11T00:51:33;11.13;;;7.87;;
4674;SDS011;2351;50.812;12.872;2022-08-11T00:54:18;12.27;;;7.77;;
4674;SDS011;2351;50.812;12.872;2022-08-11T00:57:17;14.07;;;8.23;;
4674;SDS011;2351;50.812;12.872;2022-08-11T01:00:10;14.10;;;7.30;;
4674;SDS011;2351;50.812;12.872;2022-08-11T01:02:46;11.83;;;8.23;;
4674;SDS011;2351;50.812;12.872;2022-08-11T01:08:42;9.00;;;7.10;;
4674;SDS011;2351;50.812;12.872;2022-08-11T01:11:45;13.20;;;7.37;;
4674;SDS011;2351;50.812;12.872;2022-08-11T01:14:49;10.43;;;7.20;;
4674;SDS011;2351;50.812;12.872;2022-08-11T01:27:44;15.63;;;7.20;;
4674;SDS011;2351;50.812;12.872;2022-08-11T01:31:17;10.10;;;7.10;;
4674;SDS011;2351;50.812;12.872;2022-08-11T01:40:51;14.97;;;6.83;;
4674;SDS011;2351;50.812;12.872;2022-08-11T01:44:03;8.90;;;5.63;;
4674;SDS011;2351;50.812;12.872;2022-08-11T01:47:05;8.20;;;6.40;;
4674;SDS011;2351;50.812;12.872;2022-08-11T01:50:08;11.00;;;7.30;;
4674;SDS011;2351;50.812;12.872;2022-08-11T01:52:52;11.17;;;7.40;;
4674;SDS011;2351;50.812;12.872;2022-08-11T01:55:37;12.13;;;7.20;;
4674;SDS011;2351;50.812;12.872;2022-08-11T01:58:15;9.87;;;7.40;;
4674;SDS011;2351;50.812;12.872;2022-08-11T02:00:54;10.37;;;7.53;;
4674;SDS011;2351;50.812;12.872;2022-08-11T02:03:33;7.80;;;6.40;;
4674;SDS011;2351;50.812;12.872;2022-08-11T02:06:13;19.53;;;7.33;;
4674;SDS011;2351;50.812;12.872;2022-08-11T02:09:12;15.47;;;6.90;;
4674;SDS011;2351;50.812;12.872;2022-08-11T02:11:50;9.53;;;6.67;;
4674;SDS011;2351;50.812;12.872;2022-08-11T02:14:30;10.30;;;7.50;;
4674;SDS011;2351;50.812;12.872;2022-08-11T02:17:14;11.63;;;7.07;;
4674;SDS011;2351;50.812;12.872;2022-08-11T02:19:51;12.87;;;7.90;;
4674;SDS011;2351;50.812;12.872;2022-08-11T02:22:48;16.10;;;6.93;;
4674;SDS011;2351;50.812;12.872;2022-08-11T02:25:45;13.13;;;7.00;;
4674;SDS011;2351;50.812;12.872;2022-08-11T02:28:26;8.17;;;6.03;;
4674;SDS011;2351;50.812;12.872;2022-08-11T02:31:06;9.80;;;7.70;;
4674;SDS011;2351;50.812;12.872;2022-08-11T02:34:19;10.67;;;6.73;;
4674;SDS011;2351;50.812;12.872;2022-08-11T02:37:00;12.77;;;7.60;;
4674;SDS011;2351;50.812;12.872;2022-08-11T02:39:46;19.50;;;7.13;;
4674;SDS011;2351;50.812;12.872;2022-08-11T02:42:34;13.30;;;7.57;;
4674;SDS011;2351;50.812;12.872;2022-08-11T02:45:15;9.50;;;7.50;;
4674;SDS011;2351;50.812;12.872;2022-08-11T02:48:03;13.53;;;7.17;;
4674;SDS011;2351;50.812;12.872;2022-08-11T02:51:05;11.50;;;7.17;;
4674;SDS011;2351;50.812;12.872;2022-08-11T02:53:46;14.50;;;7.90;;
4674;SDS011;2351;50.812;12.872;2022-08-11T02:56:28;8.97;;;6.90;;
4674;SDS011;2351;50.812;12.872;2022-08-11T02:59:12;15.67;;;7.37;;
4674;SDS011;2351;50.812;12.872;2022-08-11T03:02:09;10.13;;;6.73;;
4674;SDS011;2351;50.812;12.872;2022-08-11T03:04:48;14.50;;;7.73;;
4674;SDS011;2351;50.812;12.872;2022-08-11T03:07:31;14.10;;;7.60;;
4674;SDS011;2351;50.812;12.872;2022-08-11T03:10:15;10.60;;;7.50;;
4674;SDS011;2351;50.812;12.872;2022-08-11T03:12:52;14.13;;;7.30;;
4674;SDS011;2351;50.812;12.872;2022-08-11T03:15:48;11.73;;;6.90;;
4674;SDS011;2351;50.812;12.872;2022-08-11T03:18:53;14.87;;;8.13;;
4674;SDS011;2351;50.812;12.872;2022-08-11T03:21:34;12.50;;;7.83;;
4674;SDS011;2351;50.812;12.872;2022-08-11T03:24:13;12.30;;;6.70;;
4674;SDS011;2351;50.812;12.872;2022-08-11T03:26:51;17.90;;;8.27;;
4674;SDS011;2351;50.812;12.872;2022-08-11T03:29:33;14.13;;;8.13;;
4674;SDS011;2351;50.812;12.872;2022-08-11T03:32:18;15.70;;;7.13;;
4674;SDS011;2351;50.812;12.872;2022-08-11T03:34:55;13.40;;;6.83;;
4674;SDS011;2351;50.812;12.872;2022-08-11T03:37:35;10.83;;;6.70;;
4674;SDS011;2351;50.812;12.872;2022-08-11T03:43:45;7.43;;;5.90;;
4674;SDS011;2351;50.812;12.872;2022-08-11T03:46:26;15.70;;;6.60;;
4674;SDS011;2351;50.812;12.872;2022-08-11T03:49:13;29.00;;;6.27;;
4674;SDS011;2351;50.812;12.872;2022-08-11T03:51:57;8.17;;;5.97;;
4674;SDS011;2351;50.812;12.872;2022-08-11T03:54:42;10.23;;;6.43;;
4674;SDS011;2351;50.812;12.872;2022-08-11T04:00:38;14.90;;;7.47;;
4674;SDS011;2351;50.812;12.872;2022-08-11T04:09:43;15.10;;;6.90;;
4674;SDS011;2351;50.812;12.872;2022-08-11T04:16:00;12.50;;;7.20;;
4674;SDS011;2351;50.812;12.872;2022-08-11T04:25:06;10.30;;;6.33;;
4674;SDS011;2351;50.812;12.872;2022-08-11T04:30:57;12.30;;;6.90;;
4674;SDS011;2351;50.812;12.872;2022-08-11T04:33:51;10.90;;;6.67;;
4674;SDS011;2351;50.812;12.872;2022-08-11T04:36:51;10.90;;;6.80;;
4674;SDS011;2351;50.812;12.872;2022-08-11T04:40:05;12.90;;;6.67;;
4674;SDS011;2351;50.812;12.872;2022-08-11T04:43:14;15.73;;;7.10;;
4674;SDS011;2351;50.812;12.872;2022-08-11T04:49:31;11.40;;;7.73;;
4674;SDS011;2351;50.812;12.872;2022-08-11T04:52:59;12.67;;;7.20;;
4674;SDS011;2351;50.812;12.872;2022-08-11T04:56:05;14.07;;;7.40;;
4674;SDS011;2351;50.812;12.872;2022-08-11T05:05:26;14.73;;;8.50;;
4674;SDS011;2351;50.812;12.872;2022-08-11T05:14:32;18.00;;;9.67;;
4674;SDS011;2351;50.812;12.872;2022-08-11T05:17:26;22.30;;;10.00;;
4674;SDS011;2351;50.812;12.872;2022-08-11T05:20:22;17.43;;;8.80;;
4674;SDS011;2351;50.812;12.872;2022-08-11T05:23:13;15.80;;;8.97;;
4674;SDS011;2351;50.812;12.872;2022-08-11T05:26:04;18.90;;;8.50;;
4674;SDS011;2351;50.812;12.872;2022-08-11T05:28:59;14.87;;;7.47;;
4674;SDS011;2351;50.812;12.872;2022-08-11T05:31:56;11.60;;;6.87;;
4674;SDS011;2351;50.812;12.872;2022-08-11T05:34:50;10.40;;;6.43;;
4674;SDS011;2351;50.812;12.872;2022-08-11T05:37:24;13.33;;;6.97;;
4674;SDS011;2351;50.812;12.872;2022-08-11T05:40:05;11.10;;;7.30;;
4674;SDS011;2351;50.812;12.872;2022-08-11T05:42:57;11.60;;;6.13;;
4674;SDS011;2351;50.812;12.872;2022-08-11T05:45:55;13.90;;;7.00;;
4674;SDS011;2351;50.812;12.872;2022-08-11T05:48:46;11.13;;;5.90;;
4674;SDS011;2351;50.812;12.872;2022-08-11T05:51:38;14.40;;;7.50;;
4674;SDS011;2351;50.812;12.872;2022-08-11T05:54:30;9.87;;;5.90;;
4674;SDS011;2351;50.812;12.872;2022-08-11T05:57:21;10.27;;;5.23;;
4674;SDS011;2351;50.812;12.872;2022-08-11T05:59:57;7.80;;;5.20;;
4674;SDS011;2351;50.812;12.872;2022-08-11T06:02:30;7.83;;;4.93;;
4674;SDS011;2351;50.812;12.872;2022-08-11T06:05:04;17.13;;;6.00;;
4674;SDS011;2351;50.812;12.872;2022-08-11T06:07:36;9.80;;;5.50;;
4674;SDS011;2351;50.812;12.872;2022-08-11T06:10:08;9.87;;;5.90;;
4674;SDS011;2351;50.812;12.872;2022-08-11T06:12:41;17.57;;;7.00;;
4674;SDS011;2351;50.812;12.872;2022-08-11T06:15:13;13.10;;;5.57;;
4674;SDS011;2351;50.812;12.872;2022-08-11T06:17:45;6.23;;;4.73;;
4674;SDS011;2351;50.812;12.872;2022-08-11T06:20:21;11.90;;;4.23;;
4674;SDS011;2351;50.812;12.872;2022-08-11T06:22:54;3.93;;;3.30;;
4674;SDS011;2351;50.812;12.872;2022-08-11T06:25:29;9.90;;;3.43;;
4674;SDS011;2351;50.812;12.872;2022-08-11T06:28:04;6.50;;;3.47;;
4674;SDS011;2351;50.812;12.872;2022-08-11T06:30:37;5.43;;;3.03;;
4674;SDS011;2351;50.812;12.872;2022-08-11T06:33:12;9.00;;;3.90;;
4674;SDS011;2351;50.812;12.872;2022-08-11T06:35:50;5.43;;;3.73;;
4674;SDS011;2351;50.812;12.872;2022-08-11T06:38:36;7.70;;;2.87;;
4674;SDS011;2351;50.812;12.872;2022-08-11T06:41:17;4.57;;;3.00;;
4674;SDS011;2351;50.812;12.872;2022-08-11T06:44:14;10.70;;;3.30;;
4674;SDS011;2351;50.812;12.872;2022-08-11T06:46:52;5.00;;;3.33;;
4674;SDS011;2351;50.812;12.872;2022-08-11T06:49:33;8.07;;;2.80;;
4674;SDS011;2351;50.812;12.872;2022-08-11T06:52:31;3.90;;;2.93;;
4674;SDS011;2351;50.812;12.872;2022-08-11T06:55:06;3.50;;;2.70;;
4674;SDS011;2351;50.812;12.872;2022-08-11T06:57:43;6.63;;;3.33;;
4674;SDS011;2351;50.812;12.872;2022-08-11T07:00:34;5.77;;;2.50;;
4674;SDS011;2351;50.812;12.872;2022-08-11T07:03:07;3.87;;;2.80;;
4674;SDS011;2351;50.812;12.872;2022-08-11T07:05:43;4.50;;;3.23;;
4674;SDS011;2351;50.812;12.872;2022-08-11T07:08:24;10.10;;;2.67;;
4674;SDS011;2351;50.812;12.872;2022-08-11T07:15:08;2.67;;;2.47;;
4674;SDS011;2351;50.812;12.872;2022-08-11T07:17:59;11.00;;;2.67;;
4674;SDS011;2351;50.812;12.872;2022-08-11T07:20:52;3.27;;;2.27;;
4674;SDS011;2351;50.812;12.872;2022-08-11T07:23:55;3.30;;;2.20;;
4674;SDS011;2351;50.812;12.872;2022-08-11T07:26:48;3.37;;;2.40;;
4674;SDS011;2351;50.812;12.872;2022-08-11T07:29:41;8.77;;;2.53;;
4674;SDS011;2351;50.812;12.872;2022-08-11T07:32:16;2.87;;;2.47;;
4674;SDS011;2351;50.812;12.872;2022-08-11T07:34:55;3.60;;;2.70;;
4674;SDS011;2351;50.812;12.872;2022-08-11T07:37:30;2.60;;;2.27;;
4674;SDS011;2351;50.812;12.872;2022-08-11T07:40:05;3.20;;;2.30;;
4674;SDS011;2351;50.812;12.872;2022-08-11T07:42:38;7.93;;;2.07;;
4674;SDS011;2351;50.812;12.872;2022-08-11T07:45:15;3.33;;;2.83;;
4674;SDS011;2351;50.812;12.872;2022-08-11T07:48:05;3.13;;;2.20;;
4674;SDS011;2351;50.812;12.872;2022-08-11T07:50:55;2.87;;;2.60;;
4674;SDS011;2351;50.812;12.872;2022-08-11T07:53:46;4.00;;;2.17;;
4674;SDS011;2351;50.812;12.872;2022-08-11T07:56:20;4.90;;;2.50;;
4674;SDS011;2351;50.812;12.872;2022-08-11T07:58:52;5.33;;;2.33;;
4674;SDS011;2351;50.812;12.872;2022-08-11T08:01:42;3.57;;;2.20;;
4674;SDS011;2351;50.812;12.872;2022-08-11T08:04:32;2.23;;;1.93;;
4674;SDS011;2351;50.812;12.872;2022-08-11T08:07:22;2.43;;;1.83;;
4674;SDS011;2351;50.812;12.872;2022-08-11T08:10:11;9.00;;;2.20;;
4674;SDS011;2351;50.812;12.872;2022-08-11T08:13:02;3.20;;;2.20;;
4674;SDS011;2351;50.812;12.872;2022-08-11T08:15:53;4.00;;;2.50;;
4674;SDS011;2351;50.812;12.872;2022-08-11T08:18:44;4.17;;;2.90;;
4674;SDS011;2351;50.812;12.872;2022-08-11T08:21:16;2.17;;;1.97;;
4674;SDS011;2351;50.812;12.872;2022-08-11T08:23:48;2.67;;;1.90;;
4674;SDS011;2351;50.812;12.872;2022-08-11T08:26:21;3.00;;;2.43;;
4674;SDS011;2351;50.812;12.872;2022-08-11T08:29:11;3.73;;;3.10;;
4674;SDS011;2351;50.812;12.872;2022-08-11T08:32:01;4.20;;;2.00;;
4674;SDS011;2351;50.812;12.872;2022-08-11T08:34:33;17.20;;;2.40;;
4674;SDS011;2351;50.812;12.872;2022-08-11T08:37:05;2.60;;;2.23;;
4674;SDS011;2351;50.812;12.872;2022-08-11T08:39:37;2.30;;;2.10;;
4674;SDS011;2351;50.812;12.872;2022-08-11T08:42:10;2.57;;;2.37;;
4674;SDS011;2351;50.812;12.872;2022-08-11T08:44:46;3.60;;;2.60;;
4674;SDS011;2351;50.812;12.872;2022-08-11T08:47:23;7.63;;;2.40;;
4674;SDS011;2351;50.812;12.872;2022-08-11T08:49:58;2.50;;;2.03;;
4674;SDS011;2351;50.812;12.872;2022-08-11T08:52:33;9.83;;;2.50;;
4674;SDS011;2351;50.812;12.872;2022-08-11T08:55:10;5.60;;;2.63;;
4674;SDS011;2351;50.812;12.872;2022-08-11T08:57:49;8.83;;;2.50;;
4674;SDS011;2351;50.812;12.872;2022-08-11T09:00:25;4.33;;;2.27;;
4674;SDS011;2351;50.812;12.872;2022-08-11T09:03:07;5.00;;;2.47;;
4674;SDS011;2351;50.812;12.872;2022-08-11T09:05:40;5.17;;;2.60;;
4674;SDS011;2351;50.812;12.872;2022-08-11T09:08:12;1.80;;;1.70;;
4674;SDS011;2351;50.812;12.872;2022-08-11T09:10:44;4.13;;;2.27;;
4674;SDS011;2351;50.812;12.872;2022-08-11T09:13:37;2.23;;;2.00;;
4674;SDS011;2351;50.812;12.872;2022-08-11T09:16:12;8.13;;;2.57;;
4674;SDS011;2351;50.812;12.872;2022-08-11T09:18:46;4.40;;;2.43;;
4674;SDS011;2351;50.812;12.872;2022-08-11T09:21:18;3.67;;;2.30;;
4674;SDS011;2351;50.812;12.872;2022-08-11T09:23:51;2.83;;;2.57;;
4674;SDS011;2351;50.812;12.872;2022-08-11T09:26:41;2.93;;;2.40;;
4674;SDS011;2351;50.812;12.872;2022-08-11T09:29:31;5.87;;;2.40;;
4674;SDS011;2351;50.812;12.872;2022-08-11T09:32:05;2.50;;;1.90;;
4674;SDS011;2351;50.812;12.872;2022-08-11T09:34:37;2.37;;;2.00;;
4674;SDS011;2351;50.812;12.872;2022-08-11T09:37:09;2.40;;;2.20;;
4674;SDS011;2351;50.812;12.872;2022-08-11T09:39:59;7.43;;;2.23;;
4674;SDS011;2351;50.812;12.872;2022-08-11T09:42:49;2.50;;;2.30;;
4674;SDS011;2351;50.812;12.872;2022-08-11T09:45:44;6.00;;;2.80;;
4674;SDS011;2351;50.812;12.872;2022-08-11T09:48:22;3.17;;;1.87;;
4674;SDS011;2351;50.812;12.872;2022-08-11T09:50:56;2.40;;;2.20;;
4674;SDS011;2351;50.812;12.872;2022-08-11T09:53:31;2.60;;;2.40;;
4674;SDS011;2351;50.812;12.872;2022-08-11T09:56:08;2.40;;;1.70;;
4674;SDS011;2351;50.812;12.872;2022-08-11T09:59:00;6.00;;;2.50;;
4674;SDS011;2351;50.812;12.872;2022-08-11T10:01:34;2.50;;;2.30;;
4674;SDS011;2351;50.812;12.872;2022-08-11T10:04:13;3.23;;;2.40;;
4674;SDS011;2351;50.812;12.872;2022-08-11T10:06:47;2.40;;;2.20;;
4674;SDS011;2351;50.812;12.872;2022-08-11T10:09:34;2.77;;;1.93;;
4674;SDS011;2351;50.812;12.872;2022-08-11T10:12:10;1.73;;;1.63;;
4674;SDS011;2351;50.812;12.872;2022-08-11T10:14:44;5.03;;;2.13;;
4674;SDS011;2351;50.812;12.872;2022-08-11T10:17:35;5.53;;;2.27;;
4674;SDS011;2351;50.812;12.872;2022-08-11T10:20:33;4.20;;;2.13;;
4674;SDS011;2351;50.812;12.872;2022-08-11T10:23:07;3.40;;;2.50;;
4674;SDS011;2351;50.812;12.872;2022-08-11T10:25:59;11.30;;;1.97;;
4674;SDS011;2351;50.812;12.872;2022-08-11T10:28:50;2.63;;;2.10;;
4674;SDS011;2351;50.812;12.872;2022-08-11T10:31:23;3.70;;;2.30;;
4674;SDS011;2351;50.812;12.872;2022-08-11T10:34:15;21.73;;;2.33;;
4674;SDS011;2351;50.812;12.872;2022-08-11T10:36:48;2.50;;;2.30;;
4674;SDS011;2351;50.812;12.872;2022-08-11T10:39:20;3.53;;;2.30;;
4674;SDS011;2351;50.812;12.872;2022-08-11T10:41:53;2.53;;;2.17;;
4674;SDS011;2351;50.812;12.872;2022-08-11T10:44:43;4.23;;;2.03;;
4674;SDS011;2351;50.812;12.872;2022-08-11T10:47:17;3.13;;;2.43;;
4674;SDS011;2351;50.812;12.872;2022-08-11T10:50:07;3.13;;;2.43;;
4674;SDS011;2351;50.812;12.872;2022-08-11T10:52:59;3.30;;;2.30;;
4674;SDS011;2351;50.812;12.872;2022-08-11T10:55:49;3.57;;;2.70;;
4674;SDS011;2351;50.812;12.872;2022-08-11T10:58:39;2.80;;;2.47;;
4674;SDS011;2351;50.812;12.872;2022-08-11T11:01:21;4.83;;;2.13;;
4674;SDS011;2351;50.812;12.872;2022-08-11T11:03:55;2.93;;;2.20;;
4674;SDS011;2351;50.812;12.872;2022-08-11T11:06:32;15.67;;;2.20;;
4674;SDS011;2351;50.812;12.872;2022-08-11T11:09:15;2.10;;;2.00;;
4674;SDS011;2351;50.812;12.872;2022-08-11T11:11:52;2.30;;;1.90;;
4674;SDS011;2351;50.812;12.872;2022-08-11T11:14:44;3.40;;;2.43;;
4674;SDS011;2351;50.812;12.872;2022-08-11T11:17:46;2.43;;;2.23;;
4674;SDS011;2351;50.812;12.872;2022-08-11T11:20:32;2.20;;;2.00;;
4674;SDS011;2351;50.812;12.872;2022-08-11T11:23:13;3.73;;;2.57;;
4674;SDS011;2351;50.812;12.872;2022-08-11T11:25:54;2.47;;;2.27;;
4674;SDS011;2351;50.812;12.872;2022-08-11T11:29:02;7.27;;;2.60;;
4674;SDS011;2351;50.812;12.872;2022-08-11T11:31:52;2.97;;;1.87;;
4674;SDS011;2351;50.812;12.872;2022-08-11T11:34:40;3.37;;;2.33;;
4674;SDS011;2351;50.812;12.872;2022-08-11T11:37:22;3.70;;;2.67;;
4674;SDS011;2351;50.812;12.872;2022-08-11T11:39:54;3.13;;;2.83;;
4674;SDS011;2351;50.812;12.872;2022-08-11T11:42:28;2.40;;;2.20;;
4674;SDS011;2351;50.812;12.872;2022-08-11T11:45:00;6.40;;;3.00;;
4674;SDS011;2351;50.812;12.872;2022-08-11T11:47:34;3.00;;;2.40;;
4674;SDS011;2351;50.812;12.872;2022-08-11T11:50:07;2.43;;;2.23;;
4674;SDS011;2351;50.812;12.872;2022-08-11T11:52:39;3.10;;;2.80;;
4674;SDS011;2351;50.812;12.872;2022-08-11T11:55:12;3.30;;;2.60;;
4674;SDS011;2351;50.812;12.872;2022-08-11T11:57:46;2.87;;;2.57;;
4674;SDS011;2351;50.812;12.872;2022-08-11T12:00:35;15.70;;;2.60;;
4674;SDS011;2351;50.812;12.872;2022-08-11T12:03:25;3.20;;;2.60;;
4674;SDS011;2351;50.812;12.872;2022-08-11T12:05:57;4.33;;;2.80;;
4674;SDS011;2351;50.812;12.872;2022-08-11T12:08:29;4.70;;;2.70;;
4674;SDS011;2351;50.812;12.872;2022-08-11T12:11:02;3.33;;;3.03;;
4674;SDS011;2351;50.812;12.872;2022-08-11T12:14:01;5.30;;;2.53;;
4674;SDS011;2351;50.812;12.872;2022-08-11T12:16:35;7.57;;;3.00;;
4674;SDS011;2351;50.812;12.872;2022-08-11T12:19:09;3.20;;;2.80;;
4674;SDS011;2351;50.812;12.872;2022-08-11T12:21:43;5.90;;;2.60;;
4674;SDS011;2351;50.812;12.872;2022-08-11T12:24:34;3.50;;;1.97;;
4674;SDS011;2351;50.812;12.872;2022-08-11T12:27:24;2.13;;;2.03;;
4674;SDS011;2351;50.812;12.872;2022-08-11T12:29:59;9.93;;;2.50;;
4674;SDS011;2351;50.812;12.872;2022-08-11T12:32:37;3.23;;;2.07;;
4674;SDS011;2351;50.812;12.872;2022-08-11T12:35:13;2.10;;;1.90;;
4674;SDS011;2351;50.812;12.872;2022-08-11T12:37:47;1.83;;;1.73;;
4674;SDS011;2351;50.812;12.872;2022-08-11T12:40:24;11.27;;;2.10;;
4674;SDS011;2351;50.812;12.872;2022-08-11T12:43:14;3.90;;;2.50;;
4674;SDS011;2351;50.812;12.872;2022-08-11T12:46:07;2.20;;;2.00;;
4674;SDS011;2351;50.812;12.872;2022-08-11T12:48:43;4.43;;;2.90;;
4674;SDS011;2351;50.812;12.872;2022-08-11T12:51:35;5.10;;;2.13;;
4674;SDS011;2351;50.812;12.872;2022-08-11T12:54:30;6.57;;;2.03;;
4674;SDS011;2351;50.812;12.872;2022-08-11T12:57:08;2.00;;;1.87;;
4674;SDS011;2351;50.812;12.872;2022-08-11T13:00:01;1.60;;;1.50;;
4674;SDS011;2351;50.812;12.872;2022-08-11T13:02:52;2.17;;;2.07;;
4674;SDS011;2351;50.812;12.872;2022-08-11T13:05:43;2.70;;;2.23;;
4674;SDS011;2351;50.812;12.872;2022-08-11T13:08:18;2.30;;;2.10;;
4674;SDS011;2351;50.812;12.872;2022-08-11T13:10:54;2.33;;;1.97;;
4674;SDS011;2351;50.812;12.872;2022-08-11T13:13:48;5.37;;;2.07;;
4674;SDS011;2351;50.812;12.872;2022-08-11T13:16:24;2.00;;;1.90;;
4674;SDS011;2351;50.812;12.872;2022-08-11T13:18:59;4.43;;;1.67;;
4674;SDS011;2351;50.812;12.872;2022-08-11T13:21:31;2.00;;;1.80;;
4674;SDS011;2351;50.812;12.872;2022-08-11T13:24:03;9.87;;;1.93;;
4674;SDS011;2351;50.812;12.872;2022-08-11T13:26:36;4.93;;;2.23;;
4674;SDS011;2351;50.812;12.872;2022-08-11T13:29:08;3.53;;;2.07;;
4674;SDS011;2351;50.812;12.872;2022-08-11T13:31:40;2.40;;;2.20;;
4674;SDS011;2351;50.812;12.872;2022-08-11T13:34:15;14.43;;;2.07;;
4674;SDS011;2351;50.812;12.872;2022-08-11T13:36:48;2.80;;;2.00;;
4674;SDS011;2351;50.812;12.872;2022-08-11T13:39:22;3.23;;;1.33;;
4674;SDS011;2351;50.812;12.872;2022-08-11T13:41:57;1.77;;;1.63;;
4674;SDS011;2351;50.812;12.872;2022-08-11T13:44:31;1.50;;;1.40;;
4674;SDS011;2351;50.812;12.872;2022-08-11T13:47:06;2.70;;;2.10;;
4674;SDS011;2351;50.812;12.872;2022-08-11T13:49:40;1.73;;;1.63;;
4674;SDS011;2351;50.812;12.872;2022-08-11T13:52:14;1.93;;;1.80;;
4674;SDS011;2351;50.812;12.872;2022-08-11T13:54:46;1.77;;;1.50;;
4674;SDS011;2351;50.812;12.872;2022-08-11T13:57:20;2.00;;;1.90;;
4674;SDS011;2351;50.812;12.872;2022-08-11T13:59:52;2.50;;;1.43;;
4674;SDS011;2351;50.812;12.872;2022-08-11T14:02:39;3.27;;;1.90;;
4674;SDS011;2351;50.812;12.872;2022-08-11T14:05:15;1.70;;;1.60;;
4674;SDS011;2351;50.812;12.872;2022-08-11T14:07:49;11.47;;;1.90;;
4674;SDS011;2351;50.812;12.872;2022-08-11T14:10:23;10.10;;;1.57;;
4674;SDS011;2351;50.812;12.872;2022-08-11T14:12:59;3.57;;;1.57;;
4674;SDS011;2351;50.812;12.872;2022-08-11T14:15:50;1.40;;;1.23;;
4674;SDS011;2351;50.812;12.872;2022-08-11T14:18:24;1.40;;;1.30;;
4674;SDS011;2351;50.812;12.872;2022-08-11T14:21:00;1.70;;;1.60;;
4674;SDS011;2351;50.812;12.872;2022-08-11T14:23:52;4.50;;;1.87;;
4674;SDS011;2351;50.812;12.872;2022-08-11T14:26:28;1.60;;;1.50;;
4674;SDS011;2351;50.812;12.872;2022-08-11T14:29:06;1.40;;;1.20;;
4674;SDS011;2351;50.812;12.872;2022-08-11T14:31:46;1.70;;;1.13;;
4674;SDS011;2351;50.812;12.872;2022-08-11T14:34:20;2.00;;;1.30;;
4674;SDS011;2351;50.812;12.872;2022-08-11T14:36:55;2.60;;;1.50;;
4674;SDS011;2351;50.812;12.872;2022-08-11T14:39:29;2.53;;;1.40;;
4674;SDS011;2351;50.812;12.872;2022-08-11T14:42:05;3.30;;;1.30;;
4674;SDS011;2351;50.812;12.872;2022-08-11T14:44:56;2.50;;;1.63;;
4674;SDS011;2351;50.812;12.872;2022-08-11T14:48:00;1.27;;;1.17;;
4674;SDS011;2351;50.812;12.872;2022-08-11T14:50:33;1.10;;;1.00;;
4674;SDS011;2351;50.812;12.872;2022-08-11T14:53:08;1.17;;;1.10;;
4674;SDS011;2351;50.812;12.872;2022-08-11T14:55:41;1.27;;;1.23;;
4674;SDS011;2351;50.812;12.872;2022-08-11T14:58:32;1.93;;;1.30;;
4674;SDS011;2351;50.812;12.872;2022-08-11T15:01:04;10.23;;;1.50;;
4674;SDS011;2351;50.812;12.872;2022-08-11T15:03:56;4.03;;;1.40;;
4674;SDS011;2351;50.812;12.872;2022-08-11T15:06:29;1.13;;;1.10;;
4674;SDS011;2351;50.812;12.872;2022-08-11T15:09:03;1.50;;;1.23;;
4674;SDS011;2351;50.812;12.872;2022-08-11T15:11:36;14.33;;;1.10;;
4674;SDS011;2351;50.812;12.872;2022-08-11T15:14:26;4.97;;;1.73;;
4674;SDS011;2351;50.812;12.872;2022-08-11T15:17:15;5.30;;;1.20;;
4674;SDS011;2351;50.812;12.872;2022-08-11T15:19:48;1.00;;;1.00;;
4674;SDS011;2351;50.812;12.872;2022-08-11T15:22:34;1.10;;;1.00;;
4674;SDS011;2351;50.812;12.872;2022-08-11T15:25:25;1.30;;;1.20;;
4674;SDS011;2351;50.812;12.872;2022-08-11T15:28:00;1.30;;;1.20;;
4674;SDS011;2351;50.812;12.872;2022-08-11T15:30:52;3.13;;;1.00;;
4674;SDS011;2351;50.812;12.872;2022-08-11T15:33:43;0.90;;;0.90;;
4674;SDS011;2351;50.812;12.872;2022-08-11T15:36:33;2.70;;;0.90;;
4674;SDS011;2351;50.812;12.872;2022-08-11T15:39:26;0.87;;;0.87;;
4674;SDS011;2351;50.812;12.872;2022-08-11T15:42:02;1.10;;;1.00;;
4674;SDS011;2351;50.812;12.872;2022-08-11T15:45:02;1.57;;;1.20;;
4674;SDS011;2351;50.812;12.872;2022-08-11T15:48:08;0.77;;;0.77;;
4674;SDS011;2351;50.812;12.872;2022-08-11T15:50:45;1.83;;;1.03;;
4674;SDS011;2351;50.812;12.872;2022-08-11T15:53:21;1.27;;;1.17;;
4674;SDS011;2351;50.812;12.872;2022-08-11T15:55:57;0.87;;;0.87;;
4674;SDS011;2351;50.812;12.872;2022-08-11T15:58:33;12.93;;;1.10;;
4674;SDS011;2351;50.812;12.872;2022-08-11T16:01:26;1.03;;;0.93;;
4674;SDS011;2351;50.812;12.872;2022-08-11T16:04:18;1.63;;;1.10;;
4674;SDS011;2351;50.812;12.872;2022-08-11T16:06:54;0.80;;;0.80;;
4674;SDS011;2351;50.812;12.872;2022-08-11T16:09:32;1.20;;;1.00;;
4674;SDS011;2351;50.812;12.872;2022-08-11T16:12:08;0.90;;;0.90;;
4674;SDS011;2351;50.812;12.872;2022-08-11T16:14:55;15.50;;;1.30;;
4674;SDS011;2351;50.812;12.872;2022-08-11T16:17:44;2.07;;;1.20;;
4674;SDS011;2351;50.812;12.872;2022-08-11T16:20:18;1.33;;;1.17;;
4674;SDS011;2351;50.812;12.872;2022-08-11T16:22:53;0.90;;;0.73;;
4674;SDS011;2351;50.812;12.872;2022-08-11T16:25:28;1.33;;;1.23;;
4674;SDS011;2351;50.812;12.872;2022-08-11T16:28:03;1.13;;;0.80;;
4674;SDS011;2351;50.812;12.872;2022-08-11T16:30:39;0.93;;;0.93;;
4674;SDS011;2351;50.812;12.872;2022-08-11T16:33:15;1.43;;;1.13;;
4674;SDS011;2351;50.812;12.872;2022-08-11T16:35:52;0.97;;;0.93;;
4674;SDS011;2351;50.812;12.872;2022-08-11T16:38:41;1.90;;;1.23;;
4674;SDS011;2351;50.812;12.872;2022-08-11T16:41:14;4.50;;;1.30;;
4674;SDS011;2351;50.812;12.872;2022-08-11T16:44:08;2.20;;;1.10;;
4674;SDS011;2351;50.812;12.872;2022-08-11T16:47:00;1.40;;;1.00;;
4674;SDS011;2351;50.812;12.872;2022-08-11T16:49:35;3.30;;;1.00;;
4674;SDS011;2351;50.812;12.872;2022-08-11T16:52:09;8.63;;;1.43;;
4674;SDS011;2351;50.812;12.872;2022-08-11T16:54:41;2.10;;;1.33;;
4674;SDS011;2351;50.812;12.872;2022-08-11T16:57:18;1.20;;;1.10;;
4674;SDS011;2351;50.812;12.872;2022-08-11T17:00:11;2.50;;;1.00;;
4674;SDS011;2351;50.812;12.872;2022-08-11T17:02:48;1.20;;;1.10;;
4674;SDS011;2351;50.812;12.872;2022-08-11T17:05:40;6.23;;;1.30;;
4674;SDS011;2351;50.812;12.872;2022-08-11T17:08:33;2.77;;;1.63;;
4674;SDS011;2351;50.812;12.872;2022-08-11T17:11:28;1.03;;;0.93;;
4674;SDS011;2351;50.812;12.872;2022-08-11T17:14:28;4.40;;;1.30;;
4674;SDS011;2351;50.812;12.872;2022-08-11T17:17:07;1.13;;;1.07;;
4674;SDS011;2351;50.812;12.872;2022-08-11T17:19:46;1.90;;;1.00;;
4674;SDS011;2351;50.812;12.872;2022-08-11T17:22:20;1.97;;;1.37;;
4674;SDS011;2351;50.812;12.872;2022-08-11T17:25:10;2.37;;;1.47;;
4674;SDS011;2351;50.812;12.872;2022-08-11T17:27:43;6.90;;;1.63;;
4674;SDS011;2351;50.812;12.872;2022-08-11T17:30:16;3.37;;;1.50;;
4674;SDS011;2351;50.812;12.872;2022-08-11T17:32:49;1.80;;;1.13;;
4674;SDS011;2351;50.812;12.872;2022-08-11T17:35:41;2.87;;;1.57;;
4674;SDS011;2351;50.812;12.872;2022-08-11T17:38:14;1.30;;;1.20;;